sensor_id;sensor_type;location;lat;lon;timestamp;P1;durP1;ratioP1;P2;durP2;ratioP2
27313;SDS011;14800;48.174;9.798;2022-11-20T00:01:21;4.85;;;3.65;;
27313;SDS011;14800;48.174;9.798;2022-11-20T00:03:48;4.40;;;2.88;;
27313;SDS011;14800;48.174;9.798;2022-11-20T00:06:16;3.47;;;3.13;;
27313;SDS011;14800;48.174;9.798;2022-11-20T00:08:43;4.40;;;2.88;;
27313;SDS011;14800;48.174;9.798;2022-11-20T00:11:11;3.42;;;2.60;;
27313;SDS011;14800;48.174;9.798;2022-11-20T00:13:39;3.95;;;2.90;;
27313;SDS011;14800;48.174;9.798;2022-11-20T00:16:05;4.22;;;2.95;;
27313;SDS011;14800;48.174;9.798;2022-11-20T00:18:32;4.30;;;3.10;;
27313;SDS011;14800;48.174;9.798;2022-11-20T00:21:18;5.30;;;2.97;;
27313;SDS011;14800;48.174;9.798;2022-11-20T00:23:45;3.03;;;2.65;;
27313;SDS011;14800;48.174;9.798;2022-11-20T00:26:15;4.85;;;2.70;;
27313;SDS011;14800;48.174;9.798;2022-11-20T00:28:42;3.45;;;2.60;;
27313;SDS011;14800;48.174;9.798;2022-11-20T00:33:39;2.83;;;2.45;;
27313;SDS011;14800;48.174;9.798;2022-11-20T00:36:12;2.92;;;2.40;;
27313;SDS011;14800;48.174;9.798;2022-11-20T00:38:40;4.35;;;2.78;;
27313;SDS011;14800;48.174;9.798;2022-11-20T00:41:07;4.38;;;3.00;;
27313;SDS011;14800;48.174;9.798;2022-11-20T00:43:34;3.15;;;2.85;;
27313;SDS011;14800;48.174;9.798;2022-11-20T00:46:00;2.97;;;2.70;;
27313;SDS011;14800;48.174;9.798;2022-11-20T00:48:27;3.35;;;2.70;;
27313;SDS011;14800;48.174;9.798;2022-11-20T00:50:53;2.55;;;2.25;;
27313;SDS011;14800;48.174;9.798;2022-11-20T00:53:19;4.18;;;3.03;;
27313;SDS011;14800;48.174;9.798;2022-11-20T00:56:04;4.15;;;2.72;;
27313;SDS011;14800;48.174;9.798;2022-11-20T00:58:32;3.10;;;2.80;;
27313;SDS011;14800;48.174;9.798;2022-11-20T01:01:09;2.65;;;2.40;;
27313;SDS011;14800;48.174;9.798;2022-11-20T01:03:38;3.17;;;2.85;;
27313;SDS011;14800;48.174;9.798;2022-11-20T01:06:10;3.00;;;2.78;;
27313;SDS011;14800;48.174;9.798;2022-11-20T01:08:37;3.05;;;2.55;;
27313;SDS011;14800;48.174;9.798;2022-11-20T01:11:05;5.60;;;2.80;;
27313;SDS011;14800;48.174;9.798;2022-11-20T01:13:51;4.72;;;2.72;;
27313;SDS011;14800;48.174;9.798;2022-11-20T01:16:22;3.63;;;2.70;;
27313;SDS011;14800;48.174;9.798;2022-11-20T01:18:49;4.00;;;2.75;;
27313;SDS011;14800;48.174;9.798;2022-11-20T01:21:18;3.22;;;2.90;;
27313;SDS011;14800;48.174;9.798;2022-11-20T01:23:45;3.20;;;2.60;;
27313;SDS011;14800;48.174;9.798;2022-11-20T01:26:13;4.70;;;2.75;;
27313;SDS011;14800;48.174;9.798;2022-11-20T01:28:44;3.15;;;2.60;;
27313;SDS011;14800;48.174;9.798;2022-11-20T01:31:10;3.78;;;2.90;;
27313;SDS011;14800;48.174;9.798;2022-11-20T01:33:38;4.72;;;2.80;;
27313;SDS011;14800;48.174;9.798;2022-11-20T01:36:06;2.70;;;2.30;;
27313;SDS011;14800;48.174;9.798;2022-11-20T01:38:32;3.50;;;2.60;;
27313;SDS011;14800;48.174;9.798;2022-11-20T01:40:58;4.90;;;2.65;;
27313;SDS011;14800;48.174;9.798;2022-11-20T01:43:23;4.25;;;2.80;;
27313;SDS011;14800;48.174;9.798;2022-11-20T01:46:04;2.60;;;2.40;;
27313;SDS011;14800;48.174;9.798;2022-11-20T01:48:44;2.60;;;2.40;;
27313;SDS011;14800;48.174;9.798;2022-11-20T01:51:13;3.17;;;2.55;;
27313;SDS011;14800;48.174;9.798;2022-11-20T01:53:44;2.72;;;2.53;;
27313;SDS011;14800;48.174;9.798;2022-11-20T01:56:10;2.88;;;2.67;;
27313;SDS011;14800;48.174;9.798;2022-11-20T01:58:39;3.17;;;2.33;;
27313;SDS011;14800;48.174;9.798;2022-11-20T02:01:12;3.53;;;2.55;;
27313;SDS011;14800;48.174;9.798;2022-11-20T02:03:38;2.78;;;2.47;;
27313;SDS011;14800;48.174;9.798;2022-11-20T02:08:32;2.70;;;2.50;;
27313;SDS011;14800;48.174;9.798;2022-11-20T02:10:58;3.58;;;2.60;;
27313;SDS011;14800;48.174;9.798;2022-11-20T02:13:24;3.20;;;2.60;;
27313;SDS011;14800;48.174;9.798;2022-11-20T02:16:15;3.40;;;2.88;;
27313;SDS011;14800;48.174;9.798;2022-11-20T02:18:42;3.60;;;2.75;;
27313;SDS011;14800;48.174;9.798;2022-11-20T02:21:32;3.30;;;2.83;;
27313;SDS011;14800;48.174;9.798;2022-11-20T02:24:14;4.97;;;3.00;;
27313;SDS011;14800;48.174;9.798;2022-11-20T02:26:45;3.20;;;2.85;;
27313;SDS011;14800;48.174;9.798;2022-11-20T02:29:24;4.38;;;2.92;;
27313;SDS011;14800;48.174;9.798;2022-11-20T02:32:18;3.38;;;2.90;;
27313;SDS011;14800;48.174;9.798;2022-11-20T02:34:44;4.40;;;2.80;;
27313;SDS011;14800;48.174;9.798;2022-11-20T02:37:10;5.63;;;3.03;;
27313;SDS011;14800;48.174;9.798;2022-11-20T02:39:36;3.35;;;3.00;;
27313;SDS011;14800;48.174;9.798;2022-11-20T02:42:02;2.78;;;2.50;;
27313;SDS011;14800;48.174;9.798;2022-11-20T02:44:27;2.70;;;2.50;;
27313;SDS011;14800;48.174;9.798;2022-11-20T02:46:53;3.30;;;2.85;;
27313;SDS011;14800;48.174;9.798;2022-11-20T02:49:21;5.07;;;3.10;;
27313;SDS011;14800;48.174;9.798;2022-11-20T02:51:47;2.90;;;2.60;;
27313;SDS011;14800;48.174;9.798;2022-11-20T02:54:12;4.15;;;2.90;;
27313;SDS011;14800;48.174;9.798;2022-11-20T02:56:38;3.45;;;2.60;;
27313;SDS011;14800;48.174;9.798;2022-11-20T02:59:04;4.47;;;2.78;;
27313;SDS011;14800;48.174;9.798;2022-11-20T03:01:30;3.67;;;3.30;;
27313;SDS011;14800;48.174;9.798;2022-11-20T03:03:56;3.30;;;2.88;;
27313;SDS011;14800;48.174;9.798;2022-11-20T03:06:21;4.55;;;2.95;;
27313;SDS011;14800;48.174;9.798;2022-11-20T03:08:47;4.35;;;3.00;;
27313;SDS011;14800;48.174;9.798;2022-11-20T03:11:13;3.40;;;3.10;;
27313;SDS011;14800;48.174;9.798;2022-11-20T03:13:39;3.50;;;3.20;;
27313;SDS011;14800;48.174;9.798;2022-11-20T03:16:11;3.40;;;3.03;;
27313;SDS011;14800;48.174;9.798;2022-11-20T03:18:39;4.30;;;3.30;;
27313;SDS011;14800;48.174;9.798;2022-11-20T03:21:06;3.80;;;3.50;;
27313;SDS011;14800;48.174;9.798;2022-11-20T03:23:32;4.65;;;3.28;;
27313;SDS011;14800;48.174;9.798;2022-11-20T03:28:58;3.72;;;3.40;;
27313;SDS011;14800;48.174;9.798;2022-11-20T03:31:27;4.13;;;3.72;;
27313;SDS011;14800;48.174;9.798;2022-11-20T03:33:55;3.80;;;3.42;;
27313;SDS011;14800;48.174;9.798;2022-11-20T03:36:22;5.90;;;3.53;;
27313;SDS011;14800;48.174;9.798;2022-11-20T03:38:48;5.97;;;3.70;;
27313;SDS011;14800;48.174;9.798;2022-11-20T03:41:21;3.53;;;3.20;;
27313;SDS011;14800;48.174;9.798;2022-11-20T03:43:55;3.92;;;3.60;;
27313;SDS011;14800;48.174;9.798;2022-11-20T03:46:22;4.72;;;4.10;;
27313;SDS011;14800;48.174;9.798;2022-11-20T03:48:49;4.85;;;4.35;;
27313;SDS011;14800;48.174;9.798;2022-11-20T03:51:16;5.78;;;4.20;;
27313;SDS011;14800;48.174;9.798;2022-11-20T03:53:46;7.82;;;4.50;;
27313;SDS011;14800;48.174;9.798;2022-11-20T03:56:13;5.07;;;4.45;;
27313;SDS011;14800;48.174;9.798;2022-11-20T03:58:41;4.40;;;4.00;;
27313;SDS011;14800;48.174;9.798;2022-11-20T04:01:08;5.00;;;4.30;;
27313;SDS011;14800;48.174;9.798;2022-11-20T04:03:39;4.15;;;3.75;;
27313;SDS011;14800;48.174;9.798;2022-11-20T04:06:07;4.88;;;4.18;;
27313;SDS011;14800;48.174;9.798;2022-11-20T04:08:38;5.22;;;4.13;;
27313;SDS011;14800;48.174;9.798;2022-11-20T04:11:07;4.50;;;4.10;;
27313;SDS011;14800;48.174;9.798;2022-11-20T04:13:37;5.15;;;4.40;;
27313;SDS011;14800;48.174;9.798;2022-11-20T04:16:04;6.43;;;4.28;;
27313;SDS011;14800;48.174;9.798;2022-11-20T04:18:30;5.63;;;4.05;;
27313;SDS011;14800;48.174;9.798;2022-11-20T04:20:57;4.55;;;4.15;;
27313;SDS011;14800;48.174;9.798;2022-11-20T04:23:23;10.43;;;6.65;;
27313;SDS011;14800;48.174;9.798;2022-11-20T04:25:49;11.60;;;8.50;;
27313;SDS011;14800;48.174;9.798;2022-11-20T04:28:14;6.70;;;5.30;;
27313;SDS011;14800;48.174;9.798;2022-11-20T04:30:40;4.55;;;4.15;;
27313;SDS011;14800;48.174;9.798;2022-11-20T04:33:05;4.70;;;4.30;;
27313;SDS011;14800;48.174;9.798;2022-11-20T04:35:33;6.25;;;4.78;;
27313;SDS011;14800;48.174;9.798;2022-11-20T04:37:59;6.07;;;4.50;;
27313;SDS011;14800;48.174;9.798;2022-11-20T04:40:25;5.10;;;4.70;;
27313;SDS011;14800;48.174;9.798;2022-11-20T04:42:51;6.97;;;5.32;;
27313;SDS011;14800;48.174;9.798;2022-11-20T04:45:16;6.50;;;5.90;;
27313;SDS011;14800;48.174;9.798;2022-11-20T04:47:42;8.25;;;6.40;;
27313;SDS011;14800;48.174;9.798;2022-11-20T04:50:07;7.45;;;5.50;;
27313;SDS011;14800;48.174;9.798;2022-11-20T04:52:33;5.15;;;4.63;;
27313;SDS011;14800;48.174;9.798;2022-11-20T04:54:59;7.82;;;5.15;;
27313;SDS011;14800;48.174;9.798;2022-11-20T04:57:24;6.55;;;4.97;;
27313;SDS011;14800;48.174;9.798;2022-11-20T04:59:50;6.10;;;5.10;;
27313;SDS011;14800;48.174;9.798;2022-11-20T05:02:16;6.18;;;5.07;;
27313;SDS011;14800;48.174;9.798;2022-11-20T05:04:41;7.90;;;5.10;;
27313;SDS011;14800;48.174;9.798;2022-11-20T05:07:07;6.15;;;5.00;;
27313;SDS011;14800;48.174;9.798;2022-11-20T05:09:32;5.43;;;4.50;;
27313;SDS011;14800;48.174;9.798;2022-11-20T05:11:58;5.45;;;4.75;;
27313;SDS011;14800;48.174;9.798;2022-11-20T05:14:24;4.95;;;4.50;;
27313;SDS011;14800;48.174;9.798;2022-11-20T05:16:49;4.95;;;4.22;;
27313;SDS011;14800;48.174;9.798;2022-11-20T05:19:15;5.40;;;4.40;;
27313;SDS011;14800;48.174;9.798;2022-11-20T05:21:40;5.38;;;4.53;;
27313;SDS011;14800;48.174;9.798;2022-11-20T05:24:06;4.60;;;4.20;;
27313;SDS011;14800;48.174;9.798;2022-11-20T05:26:32;5.13;;;4.60;;
27313;SDS011;14800;48.174;9.798;2022-11-20T05:28:57;4.97;;;4.15;;
27313;SDS011;14800;48.174;9.798;2022-11-20T05:31:24;8.40;;;5.07;;
27313;SDS011;14800;48.174;9.798;2022-11-20T05:33:50;10.27;;;5.25;;
27313;SDS011;14800;48.174;9.798;2022-11-20T05:36:16;21.00;;;9.20;;
27313;SDS011;14800;48.174;9.798;2022-11-20T05:38:42;11.02;;;6.60;;
27313;SDS011;14800;48.174;9.798;2022-11-20T05:41:13;10.40;;;7.15;;
27313;SDS011;14800;48.174;9.798;2022-11-20T05:43:41;18.00;;;10.38;;
27313;SDS011;14800;48.174;9.798;2022-11-20T05:46:09;9.20;;;6.22;;
27313;SDS011;14800;48.174;9.798;2022-11-20T05:48:36;7.57;;;5.65;;
27313;SDS011;14800;48.174;9.798;2022-11-20T05:51:03;6.78;;;4.85;;
27313;SDS011;14800;48.174;9.798;2022-11-20T05:53:31;5.20;;;4.70;;
27313;SDS011;14800;48.174;9.798;2022-11-20T05:55:58;6.32;;;4.55;;
27313;SDS011;14800;48.174;9.798;2022-11-20T05:58:25;6.00;;;4.65;;
27313;SDS011;14800;48.174;9.798;2022-11-20T06:00:51;5.15;;;4.40;;
27313;SDS011;14800;48.174;9.798;2022-11-20T06:03:16;5.28;;;4.68;;
27313;SDS011;14800;48.174;9.798;2022-11-20T06:05:42;8.23;;;4.90;;
27313;SDS011;14800;48.174;9.798;2022-11-20T06:08:07;5.05;;;4.63;;
27313;SDS011;14800;48.174;9.798;2022-11-20T06:10:33;5.75;;;4.90;;
27313;SDS011;14800;48.174;9.798;2022-11-20T06:12:58;5.90;;;4.60;;
27313;SDS011;14800;48.174;9.798;2022-11-20T06:15:24;5.68;;;4.63;;
27313;SDS011;14800;48.174;9.798;2022-11-20T06:17:53;4.80;;;4.25;;
27313;SDS011;14800;48.174;9.798;2022-11-20T06:20:20;5.72;;;4.75;;
27313;SDS011;14800;48.174;9.798;2022-11-20T06:22:46;5.90;;;4.47;;
27313;SDS011;14800;48.174;9.798;2022-11-20T06:25:12;5.45;;;4.45;;
27313;SDS011;14800;48.174;9.798;2022-11-20T06:27:38;5.25;;;4.40;;
27313;SDS011;14800;48.174;9.798;2022-11-20T06:30:03;6.13;;;4.10;;
27313;SDS011;14800;48.174;9.798;2022-11-20T06:32:29;5.82;;;4.15;;
27313;SDS011;14800;48.174;9.798;2022-11-20T06:34:55;4.88;;;4.07;;
27313;SDS011;14800;48.174;9.798;2022-11-20T06:37:21;5.70;;;4.18;;
27313;SDS011;14800;48.174;9.798;2022-11-20T06:39:46;6.05;;;4.15;;
27313;SDS011;14800;48.174;9.798;2022-11-20T06:42:12;5.47;;;4.47;;
27313;SDS011;14800;48.174;9.798;2022-11-20T06:44:37;4.75;;;3.85;;
27313;SDS011;14800;48.174;9.798;2022-11-20T06:47:03;7.47;;;4.20;;
27313;SDS011;14800;48.174;9.798;2022-11-20T06:49:28;6.30;;;4.20;;
27313;SDS011;14800;48.174;9.798;2022-11-20T06:51:54;7.20;;;4.47;;
27313;SDS011;14800;48.174;9.798;2022-11-20T06:54:19;5.55;;;4.45;;
27313;SDS011;14800;48.174;9.798;2022-11-20T06:56:48;6.57;;;4.00;;
27313;SDS011;14800;48.174;9.798;2022-11-20T06:59:14;5.07;;;4.35;;
27313;SDS011;14800;48.174;9.798;2022-11-20T07:01:39;4.70;;;4.10;;
27313;SDS011;14800;48.174;9.798;2022-11-20T07:04:05;6.00;;;4.40;;
27313;SDS011;14800;48.174;9.798;2022-11-20T07:06:30;5.32;;;3.78;;
27313;SDS011;14800;48.174;9.798;2022-11-20T07:08:56;4.60;;;3.78;;
27313;SDS011;14800;48.174;9.798;2022-11-20T07:11:22;4.50;;;3.63;;
27313;SDS011;14800;48.174;9.798;2022-11-20T07:13:48;5.05;;;4.00;;
27313;SDS011;14800;48.174;9.798;2022-11-20T07:16:14;4.95;;;4.10;;
27313;SDS011;14800;48.174;9.798;2022-11-20T07:18:40;4.13;;;3.60;;
27313;SDS011;14800;48.174;9.798;2022-11-20T07:21:07;5.25;;;3.75;;
27313;SDS011;14800;48.174;9.798;2022-11-20T07:23:34;6.97;;;3.70;;
27313;SDS011;14800;48.174;9.798;2022-11-20T07:26:05;4.70;;;3.83;;
27313;SDS011;14800;48.174;9.798;2022-11-20T07:28:35;6.03;;;3.78;;
27313;SDS011;14800;48.174;9.798;2022-11-20T07:31:01;5.28;;;3.70;;
27313;SDS011;14800;48.174;9.798;2022-11-20T07:33:26;4.78;;;3.80;;
27313;SDS011;14800;48.174;9.798;2022-11-20T07:35:52;4.35;;;3.55;;
27313;SDS011;14800;48.174;9.798;2022-11-20T07:38:18;5.07;;;3.90;;
27313;SDS011;14800;48.174;9.798;2022-11-20T07:40:43;5.65;;;4.47;;
27313;SDS011;14800;48.174;9.798;2022-11-20T07:43:09;5.40;;;4.25;;
27313;SDS011;14800;48.174;9.798;2022-11-20T07:45:34;5.85;;;4.13;;
27313;SDS011;14800;48.174;9.798;2022-11-20T07:48:00;4.05;;;3.60;;
27313;SDS011;14800;48.174;9.798;2022-11-20T07:50:26;4.00;;;3.60;;
27313;SDS011;14800;48.174;9.798;2022-11-20T07:52:51;4.18;;;3.50;;
27313;SDS011;14800;48.174;9.798;2022-11-20T07:55:17;4.20;;;3.60;;
27313;SDS011;14800;48.174;9.798;2022-11-20T07:57:43;3.35;;;2.92;;
27313;SDS011;14800;48.174;9.798;2022-11-20T08:00:09;6.47;;;4.38;;
27313;SDS011;14800;48.174;9.798;2022-11-20T08:02:39;4.70;;;3.80;;
27313;SDS011;14800;48.174;9.798;2022-11-20T08:05:05;6.75;;;4.30;;
27313;SDS011;14800;48.174;9.798;2022-11-20T08:07:38;5.47;;;4.45;;
27313;SDS011;14800;48.174;9.798;2022-11-20T08:10:05;4.30;;;3.88;;
27313;SDS011;14800;48.174;9.798;2022-11-20T08:12:32;4.50;;;3.90;;
27313;SDS011;14800;48.174;9.798;2022-11-20T08:15:16;4.60;;;3.80;;
27313;SDS011;14800;48.174;9.798;2022-11-20T08:17:41;3.78;;;3.35;;
27313;SDS011;14800;48.174;9.798;2022-11-20T08:20:07;3.65;;;2.72;;
27313;SDS011;14800;48.174;9.798;2022-11-20T08:22:34;2.58;;;2.35;;
27313;SDS011;14800;48.174;9.798;2022-11-20T08:24:59;3.35;;;2.40;;
27313;SDS011;14800;48.174;9.798;2022-11-20T08:27:25;2.17;;;1.98;;
27313;SDS011;14800;48.174;9.798;2022-11-20T08:29:51;1.85;;;1.60;;
27313;SDS011;14800;48.174;9.798;2022-11-20T08:32:16;2.15;;;1.65;;
27313;SDS011;14800;48.174;9.798;2022-11-20T08:34:42;2.55;;;2.00;;
27313;SDS011;14800;48.174;9.798;2022-11-20T08:37:08;2.05;;;1.85;;
27313;SDS011;14800;48.174;9.798;2022-11-20T08:39:33;2.38;;;1.70;;
27313;SDS011;14800;48.174;9.798;2022-11-20T08:41:59;2.60;;;1.90;;
27313;SDS011;14800;48.174;9.798;2022-11-20T08:44:24;3.38;;;2.38;;
27313;SDS011;14800;48.174;9.798;2022-11-20T08:46:50;6.75;;;4.60;;
27313;SDS011;14800;48.174;9.798;2022-11-20T08:49:15;3.95;;;3.00;;
27313;SDS011;14800;48.174;9.798;2022-11-20T08:51:41;5.65;;;4.88;;
27313;SDS011;14800;48.174;9.798;2022-11-20T08:54:07;4.88;;;2.83;;
27313;SDS011;14800;48.174;9.798;2022-11-20T08:56:33;3.42;;;3.13;;
27313;SDS011;14800;48.174;9.798;2022-11-20T08:58:59;4.20;;;3.60;;
27313;SDS011;14800;48.174;9.798;2022-11-20T09:01:25;2.50;;;2.30;;
27313;SDS011;14800;48.174;9.798;2022-11-20T09:03:52;1.77;;;1.67;;
27313;SDS011;14800;48.174;9.798;2022-11-20T09:06:19;2.28;;;1.38;;
27313;SDS011;14800;48.174;9.798;2022-11-20T09:08:45;2.78;;;1.33;;
27313;SDS011;14800;48.174;9.798;2022-11-20T09:11:11;2.55;;;1.48;;
27313;SDS011;14800;48.174;9.798;2022-11-20T09:13:36;1.77;;;1.67;;
27313;SDS011;14800;48.174;9.798;2022-11-20T09:16:03;1.73;;;1.30;;
27313;SDS011;14800;48.174;9.798;2022-11-20T09:18:31;1.98;;;1.30;;
27313;SDS011;14800;48.174;9.798;2022-11-20T09:21:01;1.95;;;1.40;;
27313;SDS011;14800;48.174;9.798;2022-11-20T09:23:33;1.33;;;1.10;;
27313;SDS011;14800;48.174;9.798;2022-11-20T09:28:51;1.88;;;1.42;;
27313;SDS011;14800;48.174;9.798;2022-11-20T09:31:19;1.95;;;1.40;;
27313;SDS011;14800;48.174;9.798;2022-11-20T09:33:48;1.40;;;1.30;;
27313;SDS011;14800;48.174;9.798;2022-11-20T09:36:13;1.40;;;1.23;;
27313;SDS011;14800;48.174;9.798;2022-11-20T09:38:39;1.98;;;1.23;;
27313;SDS011;14800;48.174;9.798;2022-11-20T09:41:06;1.20;;;1.10;;
27313;SDS011;14800;48.174;9.798;2022-11-20T09:46:49;1.45;;;1.17;;
27313;SDS011;14800;48.174;9.798;2022-11-20T09:49:27;2.28;;;1.25;;
27313;SDS011;14800;48.174;9.798;2022-11-20T09:54:43;2.75;;;1.70;;
27313;SDS011;14800;48.174;9.798;2022-11-20T09:57:17;2.42;;;1.63;;
27313;SDS011;14800;48.174;9.798;2022-11-20T09:59:51;2.10;;;1.42;;
27313;SDS011;14800;48.174;9.798;2022-11-20T10:02:35;1.40;;;1.30;;
27313;SDS011;14800;48.174;9.798;2022-11-20T10:05:31;2.88;;;1.17;;
27313;SDS011;14800;48.174;9.798;2022-11-20T10:14:13;1.77;;;1.40;;
27313;SDS011;14800;48.174;9.798;2022-11-20T10:17:02;1.38;;;1.27;;
27313;SDS011;14800;48.174;9.798;2022-11-20T10:25:17;1.70;;;1.00;;
27313;SDS011;14800;48.174;9.798;2022-11-20T10:30:41;1.05;;;0.95;;
27313;SDS011;14800;48.174;9.798;2022-11-20T10:35:41;1.52;;;1.00;;
27313;SDS011;14800;48.174;9.798;2022-11-20T10:38:09;3.28;;;1.50;;
27313;SDS011;14800;48.174;9.798;2022-11-20T10:40:57;1.50;;;1.40;;
27313;SDS011;14800;48.174;9.798;2022-11-20T10:43:44;1.10;;;1.00;;
27313;SDS011;14800;48.174;9.798;2022-11-20T10:46:15;1.10;;;1.00;;
27313;SDS011;14800;48.174;9.798;2022-11-20T10:48:43;1.10;;;1.00;;
27313;SDS011;14800;48.174;9.798;2022-11-20T10:54:30;2.10;;;1.02;;
27313;SDS011;14800;48.174;9.798;2022-11-20T10:57:27;1.73;;;1.10;;
27313;SDS011;14800;48.174;9.798;2022-11-20T11:00:15;1.95;;;1.20;;
27313;SDS011;14800;48.174;9.798;2022-11-20T11:02:44;1.42;;;1.10;;
27313;SDS011;14800;48.174;9.798;2022-11-20T11:07:53;0.98;;;0.88;;
27313;SDS011;14800;48.174;9.798;2022-11-20T11:13:06;1.30;;;0.90;;
27313;SDS011;14800;48.174;9.798;2022-11-20T11:18:03;1.17;;;1.08;;
27313;SDS011;14800;48.174;9.798;2022-11-20T11:20:29;1.50;;;1.15;;
27313;SDS011;14800;48.174;9.798;2022-11-20T11:22:56;2.00;;;1.20;;
27313;SDS011;14800;48.174;9.798;2022-11-20T11:27:49;2.95;;;1.60;;
27313;SDS011;14800;48.174;9.798;2022-11-20T11:30:17;1.77;;;1.35;;
27313;SDS011;14800;48.174;9.798;2022-11-20T11:32:45;2.10;;;1.75;;
27313;SDS011;14800;48.174;9.798;2022-11-20T11:35:18;1.50;;;1.40;;
27313;SDS011;14800;48.174;9.798;2022-11-20T11:37:53;2.35;;;1.30;;
27313;SDS011;14800;48.174;9.798;2022-11-20T11:40:20;3.40;;;1.60;;
27313;SDS011;14800;48.174;9.798;2022-11-20T11:42:50;2.53;;;1.80;;
27313;SDS011;14800;48.174;9.798;2022-11-20T11:45:29;2.17;;;1.50;;
27313;SDS011;14800;48.174;9.798;2022-11-20T11:47:58;1.60;;;1.50;;
27313;SDS011;14800;48.174;9.798;2022-11-20T11:50:28;1.70;;;1.58;;
27313;SDS011;14800;48.174;9.798;2022-11-20T12:00:47;1.50;;;1.30;;
27313;SDS011;14800;48.174;9.798;2022-11-20T12:03:36;1.58;;;1.30;;
27313;SDS011;14800;48.174;9.798;2022-11-20T12:06:11;1.65;;;1.55;;
27313;SDS011;14800;48.174;9.798;2022-11-20T12:13:54;3.72;;;2.63;;
27313;SDS011;14800;48.174;9.798;2022-11-20T12:16:26;2.95;;;1.92;;
27313;SDS011;14800;48.174;9.798;2022-11-20T12:18:53;1.48;;;1.35;;
27313;SDS011;14800;48.174;9.798;2022-11-20T12:21:30;2.65;;;1.38;;
27313;SDS011;14800;48.174;9.798;2022-11-20T12:27:22;1.73;;;1.08;;
27313;SDS011;14800;48.174;9.798;2022-11-20T12:41:05;1.20;;;1.00;;
27313;SDS011;14800;48.174;9.798;2022-11-20T12:43:37;2.15;;;1.20;;
27313;SDS011;14800;48.174;9.798;2022-11-20T12:46:36;2.92;;;1.30;;
27313;SDS011;14800;48.174;9.798;2022-11-20T12:49:20;1.75;;;1.50;;
27313;SDS011;14800;48.174;9.798;2022-11-20T12:57:49;2.13;;;1.10;;
27313;SDS011;14800;48.174;9.798;2022-11-20T13:00:19;1.63;;;0.90;;
27313;SDS011;14800;48.174;9.798;2022-11-20T13:05:34;1.55;;;0.85;;
27313;SDS011;14800;48.174;9.798;2022-11-20T13:08:04;1.90;;;0.80;;
27313;SDS011;14800;48.174;9.798;2022-11-20T13:11:12;1.55;;;0.70;;
27313;SDS011;14800;48.174;9.798;2022-11-20T13:16:02;1.55;;;0.90;;
27313;SDS011;14800;48.174;9.798;2022-11-20T13:18:38;3.00;;;1.27;;
27313;SDS011;14800;48.174;9.798;2022-11-20T13:21:16;1.70;;;1.38;;
27313;SDS011;14800;48.174;9.798;2022-11-20T13:24:05;3.28;;;2.92;;
27313;SDS011;14800;48.174;9.798;2022-11-20T13:26:32;9.75;;;6.65;;
27313;SDS011;14800;48.174;9.798;2022-11-20T13:29:02;3.75;;;2.08;;
27313;SDS011;14800;48.174;9.798;2022-11-20T13:31:46;9.10;;;6.28;;
27313;SDS011;14800;48.174;9.798;2022-11-20T13:34:14;2.95;;;2.20;;
27313;SDS011;14800;48.174;9.798;2022-11-20T13:36:53;2.00;;;1.17;;
27313;SDS011;14800;48.174;9.798;2022-11-20T13:39:26;3.75;;;2.42;;
27313;SDS011;14800;48.174;9.798;2022-11-20T13:41:54;5.45;;;2.65;;
27313;SDS011;14800;48.174;9.798;2022-11-20T13:47:03;1.10;;;0.90;;
27313;SDS011;14800;48.174;9.798;2022-11-20T13:49:41;1.73;;;1.48;;
27313;SDS011;14800;48.174;9.798;2022-11-20T13:55:23;1.23;;;0.88;;
27313;SDS011;14800;48.174;9.798;2022-11-20T13:58:20;1.27;;;0.70;;
27313;SDS011;14800;48.174;9.798;2022-11-20T14:03:32;1.58;;;0.82;;
27313;SDS011;14800;48.174;9.798;2022-11-20T14:06:01;2.13;;;0.80;;
27313;SDS011;14800;48.174;9.798;2022-11-20T14:08:35;2.20;;;1.55;;
27313;SDS011;14800;48.174;9.798;2022-11-20T14:11:12;2.10;;;0.77;;
27313;SDS011;14800;48.174;9.798;2022-11-20T14:16:21;2.30;;;1.60;;
27313;SDS011;14800;48.174;9.798;2022-11-20T14:18:48;1.33;;;1.20;;
27313;SDS011;14800;48.174;9.798;2022-11-20T14:23:48;2.53;;;1.27;;
27313;SDS011;14800;48.174;9.798;2022-11-20T14:26:17;1.77;;;1.40;;
27313;SDS011;14800;48.174;9.798;2022-11-20T14:28:47;0.80;;;0.80;;
27313;SDS011;14800;48.174;9.798;2022-11-20T14:31:18;2.10;;;1.27;;
27313;SDS011;14800;48.174;9.798;2022-11-20T14:33:51;1.88;;;1.10;;
27313;SDS011;14800;48.174;9.798;2022-11-20T14:36:19;1.00;;;1.00;;
27313;SDS011;14800;48.174;9.798;2022-11-20T14:38:47;1.08;;;0.98;;
27313;SDS011;14800;48.174;9.798;2022-11-20T14:41:16;1.10;;;0.90;;
27313;SDS011;14800;48.174;9.798;2022-11-20T14:43:52;2.95;;;1.30;;
27313;SDS011;14800;48.174;9.798;2022-11-20T14:46:22;2.33;;;0.70;;
27313;SDS011;14800;48.174;9.798;2022-11-20T14:48:52;0.63;;;0.60;;
27313;SDS011;14800;48.174;9.798;2022-11-20T14:54:07;0.30;;;0.30;;
27313;SDS011;14800;48.174;9.798;2022-11-20T14:56:39;1.42;;;0.60;;
27313;SDS011;14800;48.174;9.798;2022-11-20T14:59:05;1.45;;;0.95;;
27313;SDS011;14800;48.174;9.798;2022-11-20T15:01:31;1.92;;;1.30;;
27313;SDS011;14800;48.174;9.798;2022-11-20T15:03:59;3.50;;;1.75;;
27313;SDS011;14800;48.174;9.798;2022-11-20T15:06:26;2.67;;;1.50;;
27313;SDS011;14800;48.174;9.798;2022-11-20T15:08:52;2.70;;;1.63;;
27313;SDS011;14800;48.174;9.798;2022-11-20T15:11:19;2.95;;;2.22;;
27313;SDS011;14800;48.174;9.798;2022-11-20T15:13:50;4.28;;;2.30;;
27313;SDS011;14800;48.174;9.798;2022-11-20T15:16:19;2.78;;;2.20;;
27313;SDS011;14800;48.174;9.798;2022-11-20T15:18:47;2.65;;;1.83;;
27313;SDS011;14800;48.174;9.798;2022-11-20T15:21:17;3.63;;;2.20;;
27313;SDS011;14800;48.174;9.798;2022-11-20T15:23:44;3.08;;;2.33;;
27313;SDS011;14800;48.174;9.798;2022-11-20T15:26:11;3.20;;;1.98;;
27313;SDS011;14800;48.174;9.798;2022-11-20T15:28:39;3.30;;;1.73;;
27313;SDS011;14800;48.174;9.798;2022-11-20T15:31:13;2.65;;;1.63;;
27313;SDS011;14800;48.174;9.798;2022-11-20T15:33:41;1.77;;;1.48;;
27313;SDS011;14800;48.174;9.798;2022-11-20T15:36:07;1.33;;;1.23;;
27313;SDS011;14800;48.174;9.798;2022-11-20T15:38:33;2.65;;;1.90;;
27313;SDS011;14800;48.174;9.798;2022-11-20T15:40:59;1.70;;;1.50;;
27313;SDS011;14800;48.174;9.798;2022-11-20T15:43:24;3.92;;;3.15;;
27313;SDS011;14800;48.174;9.798;2022-11-20T15:45:51;2.75;;;2.13;;
27313;SDS011;14800;48.174;9.798;2022-11-20T15:53:34;1.73;;;1.40;;
27313;SDS011;14800;48.174;9.798;2022-11-20T15:56:00;2.00;;;1.73;;
27313;SDS011;14800;48.174;9.798;2022-11-20T15:58:26;4.53;;;2.63;;
27313;SDS011;14800;48.174;9.798;2022-11-20T16:00:52;8.93;;;6.30;;
27313;SDS011;14800;48.174;9.798;2022-11-20T16:03:18;7.88;;;4.70;;
27313;SDS011;14800;48.174;9.798;2022-11-20T16:05:44;7.13;;;3.60;;
27313;SDS011;14800;48.174;9.798;2022-11-20T16:08:10;5.82;;;3.22;;
27313;SDS011;14800;48.174;9.798;2022-11-20T16:10:35;5.00;;;2.83;;
27313;SDS011;14800;48.174;9.798;2022-11-20T16:13:01;2.65;;;1.90;;
27313;SDS011;14800;48.174;9.798;2022-11-20T16:15:50;2.70;;;2.10;;
27313;SDS011;14800;48.174;9.798;2022-11-20T16:18:18;3.47;;;2.05;;
27313;SDS011;14800;48.174;9.798;2022-11-20T16:20:47;3.08;;;2.00;;
27313;SDS011;14800;48.174;9.798;2022-11-20T16:23:15;2.22;;;1.90;;
27313;SDS011;14800;48.174;9.798;2022-11-20T16:25:41;3.92;;;2.60;;
27313;SDS011;14800;48.174;9.798;2022-11-20T16:28:07;1.70;;;1.60;;
27313;SDS011;14800;48.174;9.798;2022-11-20T16:30:33;1.80;;;1.40;;
27313;SDS011;14800;48.174;9.798;2022-11-20T16:33:00;4.05;;;1.65;;
27313;SDS011;14800;48.174;9.798;2022-11-20T16:35:26;2.40;;;1.45;;
27313;SDS011;14800;48.174;9.798;2022-11-20T16:37:53;1.42;;;1.20;;
27313;SDS011;14800;48.174;9.798;2022-11-20T16:40:19;1.63;;;1.25;;
27313;SDS011;14800;48.174;9.798;2022-11-20T16:42:45;1.90;;;1.33;;
27313;SDS011;14800;48.174;9.798;2022-11-20T16:45:10;3.42;;;1.70;;
27313;SDS011;14800;48.174;9.798;2022-11-20T16:47:36;3.05;;;2.05;;